createdAt,value
2018-05-31T00:00:31.960Z,99.90
2018-05-31T00:02:59.459Z,99.90
2018-05-31T00:05:26.937Z,99.90
2018-05-31T00:07:54.440Z,99.90
2018-05-31T00:10:21.910Z,99.90
2018-05-31T00:12:49.427Z,99.90
2018-05-31T00:15:16.923Z,99.90
2018-05-31T00:17:44.398Z,99.90
2018-05-31T00:20:12.665Z,99.90
2018-05-31T00:22:40.146Z,99.90
2018-05-31T00:25:07.658Z,99.90
2018-05-31T00:27:35.108Z,99.90
2018-05-31T00:30:02.572Z,99.90
2018-05-31T00:32:30.212Z,99.90
2018-05-31T00:34:57.742Z,99.90
2018-05-31T00:37:25.315Z,99.90
2018-05-31T00:39:52.814Z,99.90
2018-05-31T00:42:20.317Z,99.90
2018-05-31T00:44:47.817Z,99.90
2018-05-31T00:47:15.327Z,99.90
2018-05-31T00:49:42.820Z,99.90
2018-05-31T00:52:10.300Z,99.90
2018-05-31T00:54:37.795Z,99.90
2018-05-31T00:57:05.300Z,99.90
2018-05-31T00:59:32.794Z,99.90
2018-05-31T01:02:00.310Z,99.90
2018-05-31T01:04:27.781Z,99.90
2018-05-31T01:06:56.010Z,99.90
2018-05-31T01:09:23.493Z,99.90
2018-05-31T01:11:50.982Z,99.90
2018-05-31T01:14:18.468Z,99.90
2018-05-31T01:16:46.714Z,99.90
2018-05-31T01:19:14.200Z,99.90
2018-05-31T01:21:42.457Z,99.90
2018-05-31T01:24:09.930Z,99.90
2018-05-31T01:26:38.201Z,99.90
2018-05-31T01:29:06.449Z,99.90
2018-05-31T01:31:33.962Z,99.90
2018-05-31T01:34:01.455Z,99.90
2018-05-31T01:36:28.972Z,99.90
2018-05-31T01:38:56.465Z,99.90
2018-05-31T01:41:23.939Z,99.90
2018-05-31T01:43:51.410Z,99.90
2018-05-31T01:46:18.900Z,99.90
2018-05-31T01:48:46.381Z,99.90
2018-05-31T01:51:13.864Z,99.90
2018-05-31T01:53:41.358Z,99.90
2018-05-31T01:56:10.929Z,99.90
2018-05-31T01:58:38.454Z,99.90
2018-05-31T02:01:06.712Z,99.90
2018-05-31T02:03:34.209Z,99.90
2018-05-31T02:06:02.460Z,99.90
2018-05-31T02:08:30.704Z,99.90
2018-05-31T02:10:59.102Z,99.90
2018-05-31T02:13:26.563Z,99.90
2018-05-31T02:15:54.050Z,99.90
2018-05-31T02:18:21.521Z,99.90
2018-05-31T02:20:48.989Z,99.90
2018-05-31T02:23:16.486Z,99.90
2018-05-31T02:25:44.747Z,99.90
2018-05-31T02:28:13.037Z,99.90
2018-05-31T02:30:41.276Z,99.90
2018-05-31T02:33:08.815Z,99.90
2018-05-31T02:35:36.301Z,99.90
2018-05-31T02:38:03.782Z,99.90
2018-05-31T02:40:31.288Z,99.90
2018-05-31T02:42:58.775Z,99.90
2018-05-31T02:45:26.278Z,99.90
2018-05-31T02:47:53.787Z,99.90
2018-05-31T02:50:21.249Z,99.90
2018-05-31T02:52:48.787Z,99.90
2018-05-31T02:55:16.242Z,99.90
2018-05-31T02:57:43.746Z,99.90
2018-05-31T03:00:11.250Z,99.90
2018-05-31T03:02:38.729Z,99.90
2018-05-31T03:05:06.230Z,99.90
2018-05-31T03:07:33.716Z,99.90
2018-05-31T03:10:01.182Z,99.90
2018-05-31T03:12:28.690Z,99.90
2018-05-31T03:14:56.167Z,99.90
2018-05-31T03:17:24.426Z,99.90
2018-05-31T03:19:51.899Z,99.90
2018-05-31T03:22:19.371Z,99.90
2018-05-31T03:24:47.012Z,99.90
2018-05-31T03:27:14.499Z,99.90
2018-05-31T03:29:42.351Z,99.90
2018-05-31T03:32:09.838Z,99.90
2018-05-31T03:34:37.324Z,99.90
2018-05-31T03:37:04.831Z,99.90
2018-05-31T03:39:32.346Z,99.90
2018-05-31T03:42:00.679Z,99.90
2018-05-31T03:44:28.166Z,99.90
2018-05-31T03:46:55.637Z,99.90
2018-05-31T03:49:23.146Z,99.90
2018-05-31T03:51:50.617Z,99.90
2018-05-31T03:54:18.677Z,99.90
2018-05-31T03:56:46.164Z,99.90
2018-05-31T03:59:15.136Z,99.90
2018-05-31T04:01:42.638Z,99.90
2018-05-31T04:04:10.148Z,99.90
2018-05-31T04:06:38.443Z,99.90
2018-05-31T04:09:05.906Z,99.90
2018-05-31T04:11:33.397Z,99.90
2018-05-31T04:14:01.484Z,99.90
2018-05-31T04:16:28.959Z,99.90
2018-05-31T04:18:56.462Z,99.90
2018-05-31T04:21:23.982Z,99.90
2018-05-31T04:23:51.477Z,99.90
2018-05-31T04:26:19.800Z,99.90
2018-05-31T04:28:47.294Z,99.90
2018-05-31T04:31:14.848Z,99.90
2018-05-31T04:33:42.367Z,99.90
2018-05-31T04:36:09.863Z,99.90
2018-05-31T04:38:37.411Z,99.90
2018-05-31T04:41:04.899Z,99.90
2018-05-31T04:43:32.404Z,99.90
2018-05-31T04:45:59.881Z,99.90
2018-05-31T04:48:28.107Z,99.90
2018-05-31T04:50:55.592Z,99.90
2018-05-31T04:53:23.081Z,99.90
2018-05-31T04:55:50.589Z,99.90
2018-05-31T04:58:18.846Z,99.90
2018-05-31T05:00:46.314Z,99.90
2018-05-31T05:03:13.794Z,99.90
2018-05-31T05:05:41.294Z,99.90
2018-05-31T05:08:08.820Z,99.90
2018-05-31T05:10:36.304Z,99.90
2018-05-31T05:13:03.784Z,99.90
2018-05-31T05:15:31.287Z,99.90
2018-05-31T05:17:58.797Z,99.90
2018-05-31T05:20:26.308Z,99.90
2018-05-31T05:22:53.778Z,99.90
2018-05-31T05:25:21.257Z,99.90
2018-05-31T05:27:48.781Z,99.90
2018-05-31T05:30:16.311Z,99.90
2018-05-31T05:32:44.605Z,99.90
2018-05-31T05:35:12.123Z,99.90
2018-05-31T05:37:39.601Z,99.90
2018-05-31T05:40:07.129Z,99.90
2018-05-31T05:42:34.617Z,99.90
2018-05-31T05:45:02.104Z,99.90
2018-05-31T05:47:29.584Z,99.90
2018-05-31T05:49:57.098Z,99.90
2018-05-31T05:52:24.585Z,99.90
2018-05-31T05:54:52.081Z,99.90
2018-05-31T05:57:19.575Z,99.90
2018-05-31T05:59:47.814Z,99.90
2018-05-31T06:02:15.462Z,99.90
2018-05-31T06:04:42.958Z,99.90
2018-05-31T06:07:10.470Z,99.90
2018-05-31T06:09:37.979Z,99.90
2018-05-31T06:12:06.244Z,99.90
2018-05-31T06:14:33.715Z,99.90
2018-05-31T06:17:01.232Z,99.90
2018-05-31T06:19:28.712Z,99.90
2018-05-31T06:21:56.206Z,99.90
2018-05-31T06:24:24.505Z,99.90
2018-05-31T06:26:51.996Z,99.90
2018-05-31T06:29:19.498Z,99.90
2018-05-31T06:31:46.995Z,99.90
2018-05-31T06:34:14.520Z,99.90
2018-05-31T06:36:42.773Z,99.90
2018-05-31T06:39:10.279Z,99.90
2018-05-31T06:41:37.797Z,99.90
2018-05-31T06:44:05.338Z,99.90
2018-05-31T06:46:32.854Z,99.90
2018-05-31T06:49:00.348Z,99.90
2018-05-31T06:51:27.837Z,99.90
2018-05-31T06:53:56.858Z,99.90
2018-05-31T06:56:24.396Z,99.90
2018-05-31T06:58:52.728Z,99.90
2018-05-31T07:01:20.154Z,99.90
2018-05-31T07:03:47.615Z,99.90
2018-05-31T07:06:15.132Z,99.90
2018-05-31T07:08:43.393Z,99.90
2018-05-31T07:11:10.915Z,99.90
2018-05-31T07:13:39.884Z,99.90
2018-05-31T07:16:07.374Z,99.90
2018-05-31T07:18:34.893Z,99.90
2018-05-31T07:21:02.381Z,99.90
2018-05-31T07:23:29.887Z,99.90
2018-05-31T07:25:58.239Z,99.90
2018-05-31T07:28:25.738Z,99.90
2018-05-31T07:30:54.002Z,99.90
2018-05-31T07:33:22.238Z,99.90
2018-05-31T07:35:49.729Z,99.90
2018-05-31T07:38:17.208Z,99.90
2018-05-31T07:40:45.473Z,99.90
2018-05-31T07:43:15.709Z,99.90
2018-05-31T07:45:43.186Z,99.90
2018-05-31T07:48:11.326Z,99.90
2018-05-31T07:50:39.622Z,99.90
2018-05-31T07:53:07.155Z,99.90
2018-05-31T07:55:35.429Z,99.90
2018-05-31T07:58:03.965Z,99.90
2018-05-31T08:00:31.441Z,99.90
2018-05-31T08:02:58.949Z,99.90
2018-05-31T08:05:27.233Z,99.90
2018-05-31T08:07:54.716Z,99.90
2018-05-31T08:10:22.223Z,99.90
2018-05-31T08:12:49.720Z,99.90
2018-05-31T08:15:17.732Z,99.90
2018-05-31T08:17:45.606Z,99.90
2018-05-31T08:20:13.360Z,99.90
2018-05-31T08:22:40.849Z,99.90
2018-05-31T08:25:09.152Z,99.90
2018-05-31T08:27:36.636Z,99.90
2018-05-31T08:30:04.955Z,99.90
2018-05-31T08:32:33.248Z,99.90
2018-05-31T08:35:00.988Z,99.90
2018-05-31T08:37:29.253Z,99.90
2018-05-31T08:39:57.466Z,99.90
2018-05-31T08:42:28.589Z,99.90
2018-05-31T08:44:56.104Z,99.90
2018-05-31T08:47:24.840Z,99.90
2018-05-31T08:49:53.161Z,99.90
2018-05-31T08:52:20.643Z,99.90
2018-05-31T08:54:48.116Z,98.40
2018-05-31T08:57:15.591Z,98.20
2018-05-31T08:59:43.099Z,98.40
2018-05-31T09:02:10.609Z,98.20
2018-05-31T09:04:39.555Z,99.20
2018-05-31T09:07:07.075Z,99.10
2018-05-31T09:09:34.648Z,99.30
2018-05-31T09:12:02.851Z,99.60
2018-05-31T09:14:30.333Z,99.10
2018-05-31T09:16:57.826Z,98.40
2018-05-31T09:19:25.314Z,97.60
2018-05-31T09:21:52.807Z,97.30
2018-05-31T09:24:20.255Z,97.40
2018-05-31T09:26:48.331Z,97.10
2018-05-31T09:29:15.876Z,97.30
2018-05-31T09:31:43.389Z,96.70
2018-05-31T09:34:11.844Z,96.10
2018-05-31T09:36:40.116Z,95.90
2018-05-31T09:39:07.622Z,96.10
2018-05-31T09:41:35.102Z,95.70
2018-05-31T09:44:02.590Z,95.90
2018-05-31T09:46:30.104Z,95.80
2018-05-31T09:48:57.579Z,96.20
2018-05-31T09:51:25.073Z,95.30
2018-05-31T09:53:53.318Z,95.30
2018-05-31T09:56:20.827Z,95.20
2018-05-31T09:58:48.308Z,95.10
2018-05-31T10:01:15.798Z,96.20
2018-05-31T10:03:44.213Z,94.20
2018-05-31T10:06:11.697Z,95.70
2018-05-31T10:08:39.176Z,95.10
2018-05-31T10:11:06.674Z,95.60
2018-05-31T10:13:34.159Z,96.30
2018-05-31T10:16:01.646Z,96.30
2018-05-31T10:18:29.724Z,95.10
2018-05-31T10:20:57.204Z,94.60
2018-05-31T10:23:28.134Z,96.00
2018-05-31T10:25:55.613Z,96.90
2018-05-31T10:28:23.900Z,95.20
2018-05-31T10:30:51.374Z,95.10
2018-05-31T10:33:18.860Z,95.20
2018-05-31T10:35:46.988Z,95.00
2018-05-31T10:38:14.460Z,94.90
2018-05-31T10:40:41.949Z,95.20
2018-05-31T10:43:09.430Z,94.20
2018-05-31T10:45:36.910Z,95.70
2018-05-31T10:48:05.179Z,94.00
2018-05-31T10:50:33.428Z,93.70
2018-05-31T10:53:00.930Z,93.60
2018-05-31T10:55:28.417Z,92.90
2018-05-31T10:57:55.927Z,92.70
2018-05-31T11:00:23.433Z,93.60
2018-05-31T11:02:50.927Z,93.20
2018-05-31T11:05:18.410Z,92.30
2018-05-31T11:07:46.637Z,90.40
2018-05-31T11:10:14.108Z,90.40
2018-05-31T11:12:41.596Z,90.10
2018-05-31T11:15:09.833Z,90.20
2018-05-31T11:17:37.335Z,90.20
2018-05-31T11:20:05.580Z,91.30
2018-05-31T11:22:33.067Z,91.30
2018-05-31T11:25:01.311Z,93.50
2018-05-31T11:27:28.786Z,93.40
2018-05-31T11:29:56.295Z,92.30
2018-05-31T11:32:23.777Z,92.30
2018-05-31T11:34:51.650Z,90.90
2018-05-31T11:37:19.146Z,91.70
2018-05-31T11:39:46.630Z,90.10
2018-05-31T11:42:14.112Z,91.30
2018-05-31T11:44:41.588Z,90.30
2018-05-31T11:47:09.082Z,90.10
2018-05-31T11:49:37.327Z,89.00
2018-05-31T11:52:11.937Z,89.00
2018-05-31T11:54:41.822Z,90.70
2018-05-31T11:57:09.321Z,91.40
2018-05-31T11:59:38.034Z,92.00
2018-05-31T12:02:06.475Z,90.70
2018-05-31T12:04:37.191Z,90.60
2018-05-31T12:07:04.704Z,90.40
2018-05-31T12:09:32.988Z,88.50
2018-05-31T12:12:02.167Z,88.40
2018-05-31T12:14:29.704Z,87.80
2018-05-31T12:16:57.182Z,84.00
2018-05-31T12:19:24.695Z,82.90
2018-05-31T12:21:52.204Z,81.70
2018-05-31T12:24:19.698Z,79.80
2018-05-31T12:26:51.838Z,81.00
2018-05-31T12:29:19.308Z,82.60
2018-05-31T12:31:46.920Z,82.50
2018-05-31T12:34:14.870Z,84.60
2018-05-31T12:36:42.358Z,82.90
2018-05-31T12:39:09.887Z,81.60
2018-05-31T12:41:40.132Z,82.40
2018-05-31T12:44:12.141Z,83.50
2018-05-31T12:46:39.615Z,79.10
2018-05-31T12:49:07.125Z,79.30
2018-05-31T12:51:35.715Z,78.00
2018-05-31T12:54:03.977Z,77.30
2018-05-31T12:56:31.487Z,77.20
2018-05-31T12:58:58.996Z,79.00
2018-05-31T13:01:26.480Z,79.00
2018-05-31T13:03:53.965Z,78.40
2018-05-31T13:06:21.446Z,79.80
2018-05-31T13:08:48.963Z,79.60
2018-05-31T13:11:16.447Z,81.80
2018-05-31T13:13:43.947Z,80.70
2018-05-31T13:16:11.434Z,80.60
2018-05-31T13:18:38.939Z,78.70
2018-05-31T13:21:06.423Z,78.40
2018-05-31T13:23:33.926Z,79.10
2018-05-31T13:26:01.397Z,76.40
2018-05-31T13:28:28.874Z,74.00
2018-05-31T13:30:57.120Z,70.80
2018-05-31T13:33:24.667Z,70.70
2018-05-31T13:35:52.107Z,71.00
2018-05-31T13:38:20.377Z,66.80
2018-05-31T13:40:48.630Z,67.60
2018-05-31T13:43:16.120Z,67.50
2018-05-31T13:45:43.617Z,67.80
2018-05-31T13:48:11.094Z,67.90
2018-05-31T13:50:38.568Z,67.20
2018-05-31T13:53:06.068Z,66.50
2018-05-31T13:55:33.552Z,65.40
2018-05-31T13:58:01.832Z,69.20
2018-05-31T14:00:29.641Z,69.10
2018-05-31T14:02:57.885Z,72.00
2018-05-31T14:05:25.385Z,71.90
2018-05-31T14:07:52.847Z,72.30
2018-05-31T14:10:20.420Z,70.80
2018-05-31T14:12:47.910Z,70.30
2018-05-31T14:15:15.375Z,71.40
2018-05-31T14:17:42.886Z,72.50
2018-05-31T14:20:10.340Z,72.70
2018-05-31T14:22:37.830Z,71.40
2018-05-31T14:25:05.316Z,69.30
2018-05-31T14:27:32.803Z,66.40
2018-05-31T14:30:00.342Z,66.30
2018-05-31T14:32:27.810Z,66.10
2018-05-31T14:34:56.062Z,63.30
2018-05-31T14:37:23.552Z,63.20
2018-05-31T14:39:51.802Z,63.50
2018-05-31T14:42:19.313Z,63.20
2018-05-31T14:44:47.588Z,63.10
2018-05-31T14:47:15.078Z,63.10
2018-05-31T14:49:42.529Z,65.20
2018-05-31T14:52:10.007Z,65.80
2018-05-31T14:54:37.483Z,70.20
2018-05-31T14:57:05.726Z,67.10
2018-05-31T14:59:33.208Z,66.80
2018-05-31T15:02:00.720Z,66.70
2018-05-31T15:04:28.200Z,65.10
2018-05-31T15:06:55.691Z,66.10
2018-05-31T15:09:23.926Z,64.70
2018-05-31T15:11:51.436Z,64.50
2018-05-31T15:14:18.930Z,65.30
2018-05-31T15:16:46.464Z,67.40
2018-05-31T15:19:13.929Z,67.80
2018-05-31T15:21:41.628Z,65.90
2018-05-31T15:24:09.092Z,64.20
2018-05-31T15:26:36.588Z,65.50
2018-05-31T15:29:04.822Z,62.70
2018-05-31T15:31:32.308Z,62.50
2018-05-31T15:34:00.551Z,60.90
2018-05-31T15:36:28.036Z,60.80
2018-05-31T15:38:56.309Z,66.00
2018-05-31T15:41:23.821Z,65.90
2018-05-31T15:43:51.334Z,64.80
2018-05-31T15:46:19.608Z,68.90
2018-05-31T15:48:47.092Z,68.70
2018-05-31T15:51:14.591Z,70.00
2018-05-31T15:53:42.070Z,72.60
2018-05-31T15:56:09.585Z,74.40
2018-05-31T15:58:37.066Z,74.80
2018-05-31T16:01:04.579Z,73.90
2018-05-31T16:03:32.065Z,71.80
2018-05-31T16:05:59.542Z,72.20
2018-05-31T16:08:27.066Z,68.30
2018-05-31T16:10:54.570Z,67.80
2018-05-31T16:13:22.045Z,66.70
2018-05-31T16:15:49.558Z,67.30
2018-05-31T16:18:17.026Z,65.50
2018-05-31T16:20:44.515Z,63.50
2018-05-31T16:23:12.774Z,65.10
2018-05-31T16:25:40.242Z,65.10
2018-05-31T16:28:07.732Z,66.80
2018-05-31T16:30:35.222Z,65.80
2018-05-31T16:33:02.756Z,66.00
2018-05-31T16:35:30.241Z,66.10
2018-05-31T16:37:58.058Z,68.30
2018-05-31T16:40:26.607Z,69.40
2018-05-31T16:42:54.101Z,69.30
2018-05-31T16:45:22.746Z,68.60
2018-05-31T16:47:50.223Z,68.40
2018-05-31T16:50:17.707Z,67.40
2018-05-31T16:52:45.216Z,67.80
2018-05-31T16:55:12.688Z,67.10
2018-05-31T16:57:40.363Z,66.30
2018-05-31T17:00:08.598Z,66.90
2018-05-31T17:02:39.843Z,66.60
2018-05-31T17:05:08.403Z,69.90
2018-05-31T17:07:36.683Z,70.70
2018-05-31T17:10:04.192Z,70.60
2018-05-31T17:12:31.669Z,69.50
2018-05-31T17:14:59.214Z,69.30
2018-05-31T17:17:29.188Z,70.10
2018-05-31T17:19:57.619Z,69.30
2018-05-31T17:22:26.038Z,68.30
2018-05-31T17:24:53.534Z,68.20
2018-05-31T17:27:21.019Z,70.70
2018-05-31T17:29:49.355Z,74.50
2018-05-31T17:32:17.764Z,74.40
2018-05-31T17:34:46.137Z,72.80
2018-05-31T17:37:15.100Z,74.20
2018-05-31T17:39:43.668Z,74.10
2018-05-31T17:42:11.191Z,75.90
2018-05-31T17:44:39.472Z,79.70
2018-05-31T17:47:06.957Z,79.50
2018-05-31T17:49:34.433Z,79.70
2018-05-31T17:52:01.895Z,78.50
2018-05-31T17:54:29.385Z,78.60
2018-05-31T17:56:57.723Z,80.70
2018-05-31T17:59:25.977Z,80.10
2018-05-31T18:01:53.464Z,80.00
2018-05-31T18:04:22.276Z,80.50
2018-05-31T18:06:49.767Z,80.10
2018-05-31T18:09:18.021Z,82.70
2018-05-31T18:11:45.515Z,82.20
2018-05-31T18:14:13.009Z,81.40
2018-05-31T18:16:40.470Z,82.00
2018-05-31T18:19:08.014Z,84.20
2018-05-31T18:21:35.579Z,83.90
2018-05-31T18:24:03.081Z,83.70
2018-05-31T18:26:31.301Z,84.00
2018-05-31T18:28:58.778Z,83.90
2018-05-31T18:31:26.282Z,84.90
2018-05-31T18:33:53.782Z,84.80
2018-05-31T18:36:21.294Z,85.70
2018-05-31T18:38:48.759Z,84.80
2018-05-31T18:41:16.230Z,86.60
2018-05-31T18:43:43.746Z,87.10
2018-05-31T18:46:11.252Z,87.70
2018-05-31T18:48:38.755Z,87.80
2018-05-31T18:51:06.239Z,89.30
2018-05-31T18:53:33.778Z,89.40
2018-05-31T18:56:01.243Z,89.20
2018-05-31T18:58:29.528Z,89.90
2018-05-31T19:00:57.048Z,89.70
2018-05-31T19:03:24.534Z,90.20
2018-05-31T19:05:52.800Z,90.30
2018-05-31T19:08:20.283Z,90.30
2018-05-31T19:10:48.542Z,90.80
2018-05-31T19:13:21.645Z,90.70
2018-05-31T19:15:49.889Z,91.20
2018-05-31T19:18:22.920Z,90.80
2018-05-31T19:20:50.498Z,91.20
2018-05-31T19:23:17.996Z,91.30
2018-05-31T19:25:45.512Z,91.60
2018-05-31T19:28:13.038Z,92.10
2018-05-31T19:30:46.863Z,92.70
2018-05-31T19:33:14.357Z,92.60
2018-05-31T19:35:47.479Z,92.90
2018-05-31T19:38:14.954Z,93.50
2018-05-31T19:40:43.236Z,94.10
2018-05-31T19:43:16.417Z,93.70
2018-05-31T19:45:44.659Z,94.80
2018-05-31T19:48:12.160Z,94.80
2018-05-31T19:50:40.412Z,95.20
2018-05-31T19:53:13.530Z,95.10
2018-05-31T19:55:41.039Z,95.20
2018-05-31T19:58:14.217Z,95.50
2018-05-31T20:00:47.419Z,95.60
2018-05-31T20:03:20.605Z,96.00
2018-05-31T20:05:48.112Z,96.20
2018-05-31T20:08:15.614Z,96.40
2018-05-31T20:10:43.095Z,96.20
2018-05-31T20:13:10.567Z,95.90
2018-05-31T20:15:38.080Z,96.60
2018-05-31T20:18:05.556Z,97.30
2018-05-31T20:20:33.037Z,96.80
2018-05-31T20:23:00.591Z,96.50
2018-05-31T20:25:28.071Z,96.80
2018-05-31T20:27:55.561Z,96.80
2018-05-31T20:30:23.074Z,96.90
2018-05-31T20:32:50.564Z,97.10
2018-05-31T20:35:18.153Z,97.50
2018-05-31T20:37:45.650Z,97.60
2018-05-31T20:40:13.173Z,98.00
2018-05-31T20:42:41.474Z,98.60
2018-05-31T20:45:08.940Z,98.60
2018-05-31T20:47:37.198Z,99.10
2018-05-31T20:50:04.686Z,99.10
2018-05-31T20:52:32.199Z,99.40
2018-05-31T20:54:59.675Z,99.60
2018-05-31T20:57:27.185Z,99.90
2018-05-31T20:59:54.692Z,99.90
2018-05-31T21:02:22.950Z,99.90
2018-05-31T21:04:50.449Z,99.90
2018-05-31T21:07:18.678Z,99.90
2018-05-31T21:09:46.169Z,99.90
2018-05-31T21:12:13.674Z,99.90
2018-05-31T21:14:41.175Z,99.90
2018-05-31T21:17:08.674Z,99.90
2018-05-31T21:19:36.162Z,99.90
2018-05-31T21:22:04.415Z,99.90
2018-05-31T21:24:31.952Z,99.90
2018-05-31T21:26:59.423Z,99.90
2018-05-31T21:29:26.918Z,99.90
2018-05-31T21:31:54.393Z,99.90
2018-05-31T21:34:22.469Z,99.90
2018-05-31T21:36:50.737Z,99.90
2018-05-31T21:39:18.199Z,99.90
2018-05-31T21:41:45.689Z,99.90
2018-05-31T21:44:13.951Z,99.90
2018-05-31T21:46:41.565Z,99.90
2018-05-31T21:49:09.065Z,99.90
2018-05-31T21:51:36.521Z,99.90
2018-05-31T21:54:04.032Z,99.90
2018-05-31T21:56:31.494Z,99.90
2018-05-31T21:59:00.380Z,99.90
2018-05-31T22:01:28.670Z,99.90
2018-05-31T22:03:56.147Z,99.90
2018-05-31T22:06:23.669Z,99.90
2018-05-31T22:08:51.127Z,99.90
2018-05-31T22:11:18.617Z,99.90
2018-05-31T22:13:46.136Z,99.90
2018-05-31T22:16:13.908Z,99.90
2018-05-31T22:18:41.412Z,99.90
2018-05-31T22:21:08.882Z,99.90
2018-05-31T22:23:36.370Z,99.90
2018-05-31T22:26:03.869Z,99.90
2018-05-31T22:28:31.354Z,99.90
2018-05-31T22:30:59.291Z,99.90
2018-05-31T22:33:26.772Z,99.90
2018-05-31T22:35:54.246Z,99.90
2018-05-31T22:38:22.489Z,99.90
2018-05-31T22:40:50.030Z,99.90
2018-05-31T22:43:17.508Z,99.90
2018-05-31T22:45:44.994Z,99.90
2018-05-31T22:48:13.228Z,99.90
2018-05-31T22:50:40.739Z,99.90
2018-05-31T22:53:09.085Z,99.90
2018-05-31T22:55:36.562Z,99.90
2018-05-31T22:58:04.062Z,99.90
2018-05-31T23:00:31.558Z,99.90
2018-05-31T23:02:59.059Z,99.90
2018-05-31T23:05:27.294Z,99.90
2018-05-31T23:07:54.784Z,99.90
2018-05-31T23:10:22.262Z,99.90
2018-05-31T23:12:49.973Z,99.90
2018-05-31T23:15:17.460Z,99.90
2018-05-31T23:17:44.925Z,99.90
2018-05-31T23:20:12.415Z,99.90
2018-05-31T23:22:39.872Z,99.90
2018-05-31T23:25:08.105Z,99.90
2018-05-31T23:27:36.361Z,99.90
2018-05-31T23:30:03.835Z,99.90
2018-05-31T23:32:32.093Z,99.90
2018-05-31T23:34:59.573Z,99.90
2018-05-31T23:37:27.831Z,99.90
2018-05-31T23:39:55.479Z,99.90
2018-05-31T23:42:22.933Z,99.90
2018-05-31T23:44:50.420Z,99.90
2018-05-31T23:47:17.907Z,99.90
2018-05-31T23:49:45.388Z,99.90
2018-05-31T23:52:12.895Z,99.90
2018-05-31T23:54:40.385Z,99.90
2018-05-31T23:57:07.884Z,99.90
2018-05-31T23:59:35.355Z,99.90
